Time;durP1;ratioP1;P1;durP2;ratioP2;P2;SDS_P1;SDS_P2;PMS_P1;PMS_P2;Temp;Humidity;BMP_temperature;BMP_pressure;BME280_temperature;BME280_humidity;BME280_pressure;Samples;Min_cycle;Max_cycle;Signal;HPM_P1;HPM_P2
2023/10/03 00:00:58;;;;;;;22.53;8.97;;;12.90;99.90;;;;;;4971935;28;20217;-64
2023/10/03 00:03:24;;;;;;;23.67;9.20;;;12.80;99.90;;;;;;4971454;28;20181;-65
2023/10/03 00:05:51;;;;;;;21.73;8.87;;;12.80;99.90;;;;;;4971788;28;20240;-64
2023/10/03 00:08:17;;;;;;;21.57;8.47;;;12.70;99.90;;;;;;4971775;28;20705;-63
2023/10/03 00:10:45;;;;;;;22.90;9.27;;;12.60;99.90;;;;;;4971311;28;20190;-65
2023/10/03 00:13:11;;;;;;;22.97;8.40;;;12.60;99.90;;;;;;4971512;28;20173;-63
2023/10/03 00:15:44;;;;;;;19.57;8.73;;;12.50;99.90;;;;;;4971514;28;20253;-65
2023/10/03 00:18:14;;;;;;;18.37;8.00;;;12.50;99.90;;;;;;4971577;28;20653;-65
2023/10/03 00:20:41;;;;;;;24.47;9.37;;;12.40;99.90;;;;;;4971135;28;20185;-63
2023/10/03 00:23:07;;;;;;;16.77;8.80;;;12.50;99.90;;;;;;4971431;28;20681;-65
2023/10/03 00:25:34;;;;;;;20.03;8.73;;;12.40;99.90;;;;;;4971387;28;20553;-64
2023/10/03 00:28:00;;;;;;;28.03;9.03;;;12.40;99.90;;;;;;4971357;28;20174;-65
2023/10/03 00:30:28;;;;;;;17.33;8.50;;;12.40;99.90;;;;;;4971425;28;20186;-65
2023/10/03 00:32:57;;;;;;;19.57;8.30;;;12.40;99.90;;;;;;4971475;28;20185;-65
2023/10/03 00:35:24;;;;;;;18.13;8.00;;;12.40;99.90;;;;;;4971175;28;20212;-64
2023/10/03 00:37:51;;;;;;;16.67;8.00;;;12.40;99.90;;;;;;4971351;28;20170;-64
2023/10/03 00:40:27;;;;;;;16.53;6.80;;;12.30;99.90;;;;;;4970928;28;20662;-65
2023/10/03 00:42:58;;;;;;;16.07;7.60;;;12.30;99.90;;;;;;4975027;28;20277;-65
2023/10/03 00:45:26;;;;;;;16.93;7.77;;;12.40;99.90;;;;;;4977617;28;20217;-64
2023/10/03 00:47:53;;;;;;;15.00;7.43;;;12.40;99.90;;;;;;4977482;28;20170;-64
2023/10/03 00:50:20;;;;;;;15.83;7.80;;;12.40;99.90;;;;;;4977360;28;20264;-65
2023/10/03 00:53:10;;;;;;;14.93;7.60;;;12.40;99.90;;;;;;4977360;28;20697;-64
2023/10/03 00:55:38;;;;;;;14.97;7.53;;;12.40;99.90;;;;;;4977487;28;20205;-65
2023/10/03 01:00:42;;;;;;;15.43;7.87;;;12.40;99.90;;;;;;4977257;28;20267;-63
2023/10/03 01:03:27;;;;;;;24.13;9.37;;;12.40;99.90;;;;;;4977369;28;20188;-64
2023/10/03 01:05:54;;;;;;;16.93;8.13;;;12.40;99.90;;;;;;4977485;28;20274;-63
2023/10/03 01:08:23;;;;;;;19.67;8.70;;;12.30;99.90;;;;;;4977431;28;20273;-64
2023/10/03 01:10:49;;;;;;;18.00;8.47;;;12.40;99.90;;;;;;4977415;28;20193;-64
2023/10/03 01:13:14;;;;;;;15.53;8.00;;;12.40;99.90;;;;;;4977347;28;20189;-64
2023/10/03 01:15:40;;;;;;;13.30;6.90;;;12.40;99.90;;;;;;4977527;28;20572;-65
2023/10/03 01:18:12;;;;;;;12.60;6.63;;;12.30;99.90;;;;;;4977384;28;20305;-65
2023/10/03 01:20:40;;;;;;;21.17;7.20;;;12.30;99.90;;;;;;4978160;28;20182;-63
2023/10/03 01:23:10;;;;;;;15.47;8.40;;;12.30;99.90;;;;;;4984086;28;20174;-65
2023/10/03 01:25:42;;;;;;;12.60;6.83;;;12.30;99.90;;;;;;4977016;28;20186;-64
2023/10/03 01:28:08;;;;;;;12.70;7.00;;;12.30;99.90;;;;;;4976227;28;20189;-64
2023/10/03 01:30:36;;;;;;;13.43;6.37;;;12.20;99.90;;;;;;4977333;28;20178;-63
2023/10/03 01:33:03;;;;;;;13.70;7.00;;;12.30;99.90;;;;;;4977178;28;20344;-65
2023/10/03 01:35:29;;;;;;;9.50;5.77;;;12.20;99.90;;;;;;4969452;28;20210;-64
2023/10/03 01:37:54;;;;;;;9.60;5.50;;;12.20;99.90;;;;;;4977189;28;20182;-63
2023/10/03 01:40:20;;;;;;;8.57;5.20;;;12.20;99.90;;;;;;4984600;28;20189;-63
2023/10/03 01:42:47;;;;;;;10.23;5.40;;;12.20;99.90;;;;;;4977048;28;20657;-63
2023/10/03 01:45:17;;;;;;;10.90;5.80;;;12.20;99.90;;;;;;4977341;28;20217;-65
2023/10/03 01:47:45;;;;;;;11.93;6.20;;;12.30;99.90;;;;;;4977072;28;20204;-63
2023/10/03 01:50:12;;;;;;;15.03;7.63;;;12.20;99.90;;;;;;4976915;28;20178;-63
2023/10/03 01:52:40;;;;;;;16.13;8.30;;;12.20;99.90;;;;;;4976562;28;20181;-64
2023/10/03 01:55:11;;;;;;;15.33;7.90;;;12.20;99.90;;;;;;4973273;28;20193;-65
2023/10/03 01:57:37;;;;;;;14.50;7.10;;;12.20;99.90;;;;;;4965958;28;20845;-64
2023/10/03 02:02:48;;;;;;;19.67;8.60;;;12.20;99.90;;;;;;4973881;28;20234;-64
2023/10/03 02:05:15;;;;;;;15.17;7.43;;;12.20;99.90;;;;;;4973875;28;20210;-64
2023/10/03 02:07:42;;;;;;;15.57;7.10;;;12.20;99.90;;;;;;4973814;28;20186;-64
2023/10/03 02:10:08;;;;;;;18.20;8.20;;;12.20;99.90;;;;;;4981265;28;20772;-64
2023/10/03 02:12:33;;;;;;;20.67;8.80;;;12.20;99.90;;;;;;4973509;28;20270;-65
2023/10/03 02:15:07;;;;;;;17.97;8.50;;;12.10;99.90;;;;;;4973925;28;20292;-64
2023/10/03 02:17:34;;;;;;;19.90;8.43;;;12.10;99.90;;;;;;4973549;28;20214;-64
2023/10/03 02:20:00;;;;;;;20.93;9.63;;;12.00;99.90;;;;;;4973140;28;20213;-64
2023/10/03 02:22:26;;;;;;;21.73;9.07;;;12.00;99.90;;;;;;4973604;28;20182;-65
2023/10/03 02:24:52;;;;;;;18.47;8.70;;;12.00;99.90;;;;;;4973574;28;20253;-63
2023/10/03 02:27:17;;;;;;;18.07;8.40;;;12.00;99.90;;;;;;4973458;28;20213;-64
2023/10/03 02:29:44;;;;;;;20.87;8.83;;;11.90;99.90;;;;;;4971556;28;20546;-65
2023/10/03 02:32:10;;;;;;;24.97;8.40;;;11.90;99.90;;;;;;4973443;28;20217;-65
2023/10/03 02:34:36;;;;;;;17.33;8.07;;;12.00;99.90;;;;;;4973421;28;20205;-64
2023/10/03 02:37:01;;;;;;;19.10;7.67;;;11.90;99.90;;;;;;4973373;28;20213;-63
2023/10/03 02:39:39;;;;;;;13.77;7.10;;;11.90;99.90;;;;;;4972889;28;20189;-64
2023/10/03 02:42:06;;;;;;;14.00;6.77;;;11.90;99.90;;;;;;4973170;28;20587;-63
2023/10/03 02:44:32;;;;;;;13.27;6.43;;;11.90;99.90;;;;;;4973270;28;20220;-64
2023/10/03 02:46:58;;;;;;;13.03;6.47;;;11.80;99.90;;;;;;4980826;28;20209;-65
2023/10/03 02:49:24;;;;;;;16.43;7.27;;;11.80;99.90;;;;;;4972686;28;20224;-63
2023/10/03 02:51:49;;;;;;;15.70;6.60;;;11.70;99.90;;;;;;4972675;28;20249;-64
2023/10/03 02:54:15;;;;;;;16.73;8.07;;;11.80;99.90;;;;;;4973254;28;20214;-64
2023/10/03 02:56:42;;;;;;;15.87;7.63;;;11.70;99.90;;;;;;4981010;28;20225;-64
2023/10/03 02:59:08;;;;;;;20.03;7.87;;;11.70;99.90;;;;;;4972307;28;20681;-62
2023/10/03 03:01:37;;;;;;;18.80;8.50;;;11.80;99.90;;;;;;4972829;28;20193;-63
2023/10/03 03:04:04;;;;;;;17.63;8.00;;;11.70;99.90;;;;;;4973130;28;20194;-63
2023/10/03 03:06:31;;;;;;;18.00;8.03;;;11.80;99.90;;;;;;4980633;28;20613;-63
2023/10/03 03:08:57;;;;;;;17.33;7.93;;;11.80;99.90;;;;;;4972480;28;20623;-65
2023/10/03 03:11:22;;;;;;;16.23;8.03;;;11.80;99.90;;;;;;4972456;28;20748;-63
2023/10/03 03:13:49;;;;;;;19.23;7.30;;;11.70;99.90;;;;;;4972777;28;20541;-63
2023/10/03 03:16:15;;;;;;;15.23;6.97;;;11.60;99.90;;;;;;4972643;28;20202;-65
2023/10/03 03:18:41;;;;;;;11.17;5.93;;;11.60;99.90;;;;;;4972101;28;20673;-64
2023/10/03 03:21:13;;;;;;;11.00;6.00;;;11.60;99.90;;;;;;4972511;28;20244;-64
2023/10/03 03:23:42;;;;;;;10.50;6.03;;;11.60;99.90;;;;;;4972512;28;20205;-64
2023/10/03 03:26:17;;;;;;;10.90;5.67;;;11.50;99.90;;;;;;4972518;28;20186;-63
2023/10/03 03:28:49;;;;;;;11.87;6.40;;;11.50;99.90;;;;;;4979933;28;20215;-64
2023/10/03 03:31:21;;;;;;;11.67;6.77;;;11.50;99.90;;;;;;4972217;28;20260;-62
2023/10/03 03:33:57;;;;;;;12.20;6.47;;;11.40;99.90;;;;;;4980346;28;20205;-63
2023/10/03 03:36:29;;;;;;;11.67;5.93;;;11.40;99.90;;;;;;4972312;28;20205;-62
2023/10/03 03:38:56;;;;;;;11.00;5.47;;;11.40;99.90;;;;;;4971605;28;20266;-63
2023/10/03 03:41:22;;;;;;;9.57;5.40;;;11.30;99.90;;;;;;4971902;28;20182;-65
2023/10/03 03:43:48;;;;;;;8.77;4.83;;;11.40;99.90;;;;;;4963904;28;20221;-63
2023/10/03 03:46:15;;;;;;;11.50;5.60;;;11.30;99.90;;;;;;4972170;28;20653;-62
2023/10/03 03:48:40;;;;;;;9.27;5.07;;;11.30;99.90;;;;;;4971615;28;20221;-63
2023/10/03 03:51:11;;;;;;;11.87;6.03;;;11.30;99.90;;;;;;4971966;28;20577;-64
2023/10/03 03:53:37;;;;;;;12.33;5.80;;;11.30;99.90;;;;;;4971995;28;20220;-63
2023/10/03 03:56:07;;;;;;;10.57;5.87;;;11.30;99.90;;;;;;4971844;28;20201;-62
2023/10/03 03:58:40;;;;;;;9.30;5.20;;;11.20;99.90;;;;;;4970871;28;20184;-63
2023/10/03 04:01:23;;;;;;;10.50;5.90;;;11.20;99.90;;;;;;4967433;28;20170;-63
2023/10/03 04:03:53;;;;;;;14.73;6.00;;;11.20;99.90;;;;;;4970806;28;20210;-63
2023/10/03 04:06:20;;;;;;;13.43;6.10;;;11.20;99.90;;;;;;4971801;28;20192;-63
2023/10/03 04:08:45;;;;;;;8.80;5.50;;;11.10;99.90;;;;;;4970890;28;20669;-64
2023/10/03 04:11:13;;;;;;;13.40;5.70;;;11.20;99.90;;;;;;4971617;28;20233;-62
2023/10/03 04:13:39;;;;;;;12.37;6.00;;;11.10;99.90;;;;;;4971620;28;20608;-63
2023/10/03 04:16:06;;;;;;;10.33;5.93;;;11.10;99.90;;;;;;4971301;28;20202;-63
2023/10/03 04:18:33;;;;;;;11.30;5.73;;;11.10;99.90;;;;;;4978692;28;20174;-65
2023/10/03 04:21:00;;;;;;;14.13;6.23;;;11.10;99.90;;;;;;4971703;28;20264;-64
2023/10/03 04:23:26;;;;;;;11.13;5.90;;;11.00;99.90;;;;;;4966876;28;20555;-63
2023/10/03 04:25:52;;;;;;;11.50;6.23;;;11.00;99.90;;;;;;4970736;28;20185;-63
2023/10/03 04:28:18;;;;;;;16.83;6.47;;;10.90;99.90;;;;;;4971291;28;20248;-63
2023/10/03 04:30:43;;;;;;;10.27;5.60;;;10.90;99.90;;;;;;4971202;28;20677;-63
2023/10/03 04:33:09;;;;;;;12.13;6.10;;;10.80;99.90;;;;;;4979482;28;20189;-63
2023/10/03 04:35:35;;;;;;;12.07;6.30;;;10.80;99.90;;;;;;4971391;28;20189;-64
2023/10/03 04:38:04;;;;;;;12.73;6.20;;;10.80;99.90;;;;;;4970980;28;20297;-63
2023/10/03 04:40:37;;;;;;;13.53;6.47;;;10.80;99.90;;;;;;4970765;28;20220;-64
2023/10/03 04:43:15;;;;;;;10.70;5.73;;;10.80;99.90;;;;;;4971329;28;20178;-62
2023/10/03 04:45:42;;;;;;;10.07;5.73;;;10.80;99.90;;;;;;4971041;28;20198;-63
2023/10/03 04:48:08;;;;;;;10.83;6.07;;;10.70;99.90;;;;;;4970990;28;20186;-63
2023/10/03 04:50:39;;;;;;;10.87;6.17;;;10.80;99.90;;;;;;4970774;28;20178;-64
2023/10/03 04:53:07;;;;;;;14.70;6.40;;;10.80;99.90;;;;;;4978224;28;20656;-64
2023/10/03 04:55:33;;;;;;;14.23;6.17;;;10.70;99.90;;;;;;4970854;28;20197;-64
2023/10/03 04:57:59;;;;;;;13.27;6.60;;;10.70;99.90;;;;;;4971107;28;20221;-64
2023/10/03 05:00:26;;;;;;;11.43;5.67;;;10.70;99.90;;;;;;4971345;28;20213;-66
2023/10/03 05:02:53;;;;;;;12.83;6.30;;;10.70;99.90;;;;;;4970954;28;20669;-63
2023/10/03 05:05:21;;;;;;;11.70;6.20;;;10.70;99.90;;;;;;4971235;28;20201;-63
2023/10/03 05:07:53;;;;;;;11.93;5.83;;;10.70;99.90;;;;;;4970303;28;20182;-63
2023/10/03 05:10:20;;;;;;;11.90;5.90;;;10.70;99.90;;;;;;4968073;28;20264;-62
2023/10/03 05:12:47;;;;;;;12.57;6.43;;;10.70;99.90;;;;;;4970974;28;20204;-64
2023/10/03 05:15:17;;;;;;;13.87;7.20;;;10.80;99.90;;;;;;4971086;28;20213;-63
2023/10/03 05:17:47;;;;;;;13.40;6.50;;;10.80;99.90;;;;;;4970810;28;20276;-63
2023/10/03 05:20:13;;;;;;;14.27;6.20;;;10.80;99.90;;;;;;4970596;28;20277;-63
2023/10/03 05:22:40;;;;;;;12.03;6.00;;;10.70;99.90;;;;;;4978940;28;20185;-63
2023/10/03 05:25:11;;;;;;;12.40;6.40;;;10.70;99.90;;;;;;4971044;28;20202;-64
2023/10/03 05:27:37;;;;;;;12.23;6.20;;;10.80;99.90;;;;;;4971093;28;20225;-65
2023/10/03 05:30:05;;;;;;;11.87;5.83;;;10.70;99.90;;;;;;4974221;28;20190;-63
2023/10/03 05:32:31;;;;;;;13.30;6.47;;;10.60;99.90;;;;;;4974369;28;20181;-63
2023/10/03 05:34:58;;;;;;;28.23;13.03;;;10.70;99.90;;;;;;4974412;28;20292;-64
2023/10/03 05:37:24;;;;;;;14.40;7.50;;;10.70;99.90;;;;;;4974364;28;20236;-63
2023/10/03 05:39:50;;;;;;;14.80;7.10;;;10.70;99.90;;;;;;4973783;28;20685;-63
2023/10/03 05:42:17;;;;;;;11.13;6.03;;;10.80;99.90;;;;;;4974067;28;20288;-64
2023/10/03 05:44:44;;;;;;;9.83;6.00;;;10.80;99.90;;;;;;4973598;28;20214;-63
2023/10/03 05:47:09;;;;;;;14.80;6.50;;;10.90;99.90;;;;;;4973225;28;20740;-63
2023/10/03 05:49:35;;;;;;;12.33;6.53;;;10.90;99.90;;;;;;4972662;28;20265;-63
2023/10/03 05:52:00;;;;;;;12.90;6.33;;;10.90;99.90;;;;;;4973607;28;20192;-64
2023/10/03 05:54:26;;;;;;;13.90;6.83;;;10.90;99.90;;;;;;4973666;28;20206;-63
2023/10/03 05:56:52;;;;;;;14.33;6.90;;;10.90;99.90;;;;;;4973148;28;20209;-63
2023/10/03 05:59:20;;;;;;;14.40;6.40;;;10.90;99.90;;;;;;4967303;28;20193;-64
2023/10/03 06:01:46;;;;;;;15.47;7.33;;;10.90;99.90;;;;;;4966499;28;20233;-64
2023/10/03 06:04:12;;;;;;;15.50;7.40;;;10.90;99.90;;;;;;4967580;28;20201;-62
2023/10/03 06:06:37;;;;;;;15.23;7.10;;;10.90;99.90;;;;;;4966568;28;20186;-66
2023/10/03 06:09:03;;;;;;;16.70;7.30;;;11.00;99.90;;;;;;4967283;28;20178;-67
2023/10/03 06:11:30;;;;;;;16.07;7.10;;;11.00;99.90;;;;;;4967047;28;20181;-66
2023/10/03 06:13:57;;;;;;;13.10;6.40;;;11.10;99.90;;;;;;4967203;28;20206;-64
2023/10/03 06:16:23;;;;;;;14.93;6.87;;;11.10;99.90;;;;;;4967488;28;20304;-63
2023/10/03 06:18:50;;;;;;;16.57;6.70;;;11.20;99.90;;;;;;4966861;28;20205;-66
2023/10/03 06:21:16;;;;;;;12.87;6.93;;;11.30;99.90;;;;;;4966045;28;20304;-64
2023/10/03 06:23:42;;;;;;;14.10;6.53;;;11.30;99.90;;;;;;4965783;28;21336;-63
2023/10/03 06:26:08;;;;;;;14.03;7.20;;;11.40;99.90;;;;;;4967086;28;20181;-65
2023/10/03 06:28:33;;;;;;;14.63;6.73;;;11.50;99.90;;;;;;4979939;28;20189;-64
2023/10/03 06:30:59;;;;;;;13.93;7.33;;;11.60;99.90;;;;;;4966538;28;20213;-66
2023/10/03 06:33:24;;;;;;;16.03;7.10;;;11.60;99.90;;;;;;4967088;28;20534;-63
2023/10/03 06:35:51;;;;;;;14.13;7.03;;;11.70;99.90;;;;;;4966988;28;20217;-64
2023/10/03 06:38:17;;;;;;;13.30;6.97;;;11.70;99.90;;;;;;4966728;28;20265;-65
2023/10/03 06:40:43;;;;;;;15.97;7.00;;;11.80;99.90;;;;;;4966035;28;20185;-64
2023/10/03 06:43:12;;;;;;;13.40;6.67;;;12.00;99.90;;;;;;4980750;28;20186;-65
2023/10/03 06:45:38;;;;;;;14.90;7.60;;;12.00;99.90;;;;;;4967275;28;20186;-64
2023/10/03 06:48:04;;;;;;;15.47;6.93;;;12.10;99.90;;;;;;4967102;28;20186;-65
2023/10/03 06:50:31;;;;;;;18.23;8.10;;;12.20;99.90;;;;;;4972354;28;20182;-63
2023/10/03 06:52:57;;;;;;;19.37;7.13;;;12.10;99.90;;;;;;4972164;28;20192;-64
2023/10/03 06:55:23;;;;;;;17.20;7.67;;;12.20;99.90;;;;;;4972516;28;20296;-63
2023/10/03 06:57:48;;;;;;;14.90;7.77;;;12.20;99.90;;;;;;4972079;28;20241;-64
2023/10/03 07:00:15;;;;;;;14.70;6.97;;;12.30;99.90;;;;;;4971991;28;20221;-65
2023/10/03 07:02:41;;;;;;;15.73;7.20;;;12.30;99.90;;;;;;4973111;28;20602;-65
2023/10/03 07:05:08;;;;;;;16.33;7.50;;;12.40;99.90;;;;;;4979410;28;20225;-64
2023/10/03 07:07:34;;;;;;;13.90;7.20;;;12.50;99.90;;;;;;4972219;28;20264;-63
2023/10/03 07:10:00;;;;;;;14.97;8.30;;;12.60;99.90;;;;;;4971571;28;20182;-64
2023/10/03 07:12:25;;;;;;;18.93;7.73;;;12.70;99.90;;;;;;4972029;28;20225;-64
2023/10/03 07:14:51;;;;;;;15.77;6.60;;;12.80;99.90;;;;;;4972267;28;20232;-64
2023/10/03 07:17:17;;;;;;;16.40;7.13;;;13.00;99.90;;;;;;4971981;28;20687;-64
2023/10/03 07:19:48;;;;;;;15.40;7.10;;;13.20;99.90;;;;;;4971446;28;20654;-65
2023/10/03 07:22:14;;;;;;;14.77;7.60;;;13.40;99.90;;;;;;4971774;28;20190;-64
2023/10/03 07:24:40;;;;;;;20.27;8.20;;;13.50;99.90;;;;;;4971569;28;20343;-64
2023/10/03 07:27:07;;;;;;;20.53;7.50;;;13.70;99.90;;;;;;4971584;28;20185;-64
2023/10/03 07:29:36;;;;;;;15.53;7.13;;;13.80;99.90;;;;;;4971350;28;20182;-65
2023/10/03 07:32:02;;;;;;;17.23;6.67;;;13.90;99.90;;;;;;4971391;28;20196;-64
2023/10/03 07:34:28;;;;;;;22.07;8.77;;;14.00;99.90;;;;;;4971504;28;20332;-64
2023/10/03 07:36:54;;;;;;;21.17;8.40;;;13.90;99.90;;;;;;4971464;28;20237;-65
2023/10/03 07:39:21;;;;;;;18.90;8.70;;;13.90;99.90;;;;;;4971185;28;20268;-63
2023/10/03 07:41:51;;;;;;;24.70;10.37;;;14.00;99.90;;;;;;4971053;28;20197;-62
2023/10/03 07:44:17;;;;;;;27.97;10.93;;;14.00;99.90;;;;;;4971576;28;20222;-64
2023/10/03 07:46:43;;;;;;;19.80;8.63;;;14.00;99.90;;;;;;4971258;28;20676;-64
2023/10/03 07:49:09;;;;;;;22.67;9.00;;;14.00;99.90;;;;;;4971021;28;20194;-63
2023/10/03 07:51:35;;;;;;;23.07;9.03;;;13.90;99.90;;;;;;4969962;28;20588;-63
2023/10/03 07:54:01;;;;;;;22.77;8.77;;;13.90;99.90;;;;;;4969570;28;20304;-64
2023/10/03 07:56:30;;;;;;;21.83;9.37;;;14.00;99.90;;;;;;4969756;28;20201;-64
2023/10/03 07:58:56;;;;;;;23.70;9.73;;;14.00;99.90;;;;;;4969998;28;20174;-64
2023/10/03 08:01:26;;;;;;;20.00;9.50;;;14.10;99.90;;;;;;4970885;28;20640;-63
2023/10/03 08:03:53;;;;;;;16.47;8.00;;;14.20;99.90;;;;;;4971545;28;20201;-64
2023/10/03 08:06:33;;;;;;;20.00;7.53;;;14.30;99.90;;;;;;4970818;28;20186;-63
2023/10/03 08:08:59;;;;;;;22.57;8.53;;;14.40;99.90;;;;;;4973880;28;20188;-63
2023/10/03 08:11:32;;;;;;;18.53;7.93;;;14.50;99.90;;;;;;4975665;28;20748;-63
2023/10/03 08:14:13;;;;;;;21.93;8.77;;;14.60;99.90;;;;;;4971030;28;20317;-63
2023/10/03 08:16:42;;;;;;;23.43;10.40;;;14.70;99.90;;;;;;4970832;28;20216;-64
2023/10/03 08:19:08;;;;;;;23.00;10.20;;;14.80;99.90;;;;;;4970147;28;20194;-65
2023/10/03 08:21:35;;;;;;;24.60;9.87;;;15.00;99.90;;;;;;4971117;28;20232;-63
2023/10/03 08:24:09;;;;;;;24.10;9.50;;;15.00;99.90;;;;;;4970785;28;20202;-63
2023/10/03 08:26:36;;;;;;;25.07;10.13;;;15.20;99.90;;;;;;4970652;28;20208;-64
2023/10/03 08:29:04;;;;;;;27.33;10.33;;;15.40;99.90;;;;;;4970250;28;20587;-63
2023/10/03 08:31:31;;;;;;;24.20;10.07;;;15.40;99.90;;;;;;4970779;28;20225;-65
2023/10/03 08:33:57;;;;;;;22.50;9.47;;;15.50;99.90;;;;;;4970733;28;20233;-63
2023/10/03 08:36:27;;;;;;;22.57;9.57;;;15.60;99.90;;;;;;4962753;28;20209;-64
2023/10/03 08:38:57;;;;;;;25.97;9.50;;;15.60;99.90;;;;;;4969778;28;20186;-65
2023/10/03 08:41:35;;;;;;;24.40;9.67;;;15.80;99.90;;;;;;4970592;28;20676;-64
2023/10/03 08:44:05;;;;;;;30.97;9.63;;;16.00;99.90;;;;;;4970699;28;20711;-63
2023/10/03 08:46:36;;;;;;;25.07;8.97;;;16.00;99.90;;;;;;4970399;28;20309;-64
2023/10/03 08:49:08;;;;;;;20.27;9.73;;;16.10;99.90;;;;;;4962567;28;20178;-63
2023/10/03 08:51:35;;;;;;;25.60;10.10;;;16.30;99.90;;;;;;4970742;28;20189;-63
2023/10/03 08:54:12;;;;;;;24.40;9.63;;;16.40;99.90;;;;;;4962646;28;20692;-64
2023/10/03 08:56:41;;;;;;;22.90;10.93;;;16.60;99.90;;;;;;4970354;28;20189;-64
2023/10/03 08:59:09;;;;;;;24.60;10.73;;;16.90;99.90;;;;;;4970160;28;20185;-64
2023/10/03 09:01:43;;;;;;;26.37;10.00;;;17.10;99.90;;;;;;4970651;28;20194;-64
2023/10/03 09:04:15;;;;;;;25.20;10.23;;;17.20;99.90;;;;;;4973485;28;20202;-65
2023/10/03 09:06:43;;;;;;;21.57;10.03;;;17.40;99.90;;;;;;4974302;28;20182;-65
2023/10/03 09:09:09;;;;;;;21.27;10.37;;;17.30;99.90;;;;;;4968300;28;20708;-65
2023/10/03 09:11:37;;;;;;;25.83;11.70;;;17.50;99.90;;;;;;4970829;28;20269;-66
2023/10/03 09:14:03;;;;;;;25.50;10.40;;;17.70;99.90;;;;;;4974613;28;20198;-64
2023/10/03 09:16:28;;;;;;;24.03;11.17;;;18.00;99.90;;;;;;4973973;28;20244;-65
2023/10/03 09:18:56;;;;;;;27.77;12.73;;;18.40;99.90;;;;;;4973658;28;20268;-65
2023/10/03 09:21:27;;;;;;;22.63;10.30;;;18.60;99.90;;;;;;4974063;28;20232;-64
2023/10/03 09:24:14;;;;;;;20.63;9.70;;;18.70;99.90;;;;;;4973799;28;20220;-65
2023/10/03 09:26:50;;;;;;;22.73;10.57;;;18.60;99.90;;;;;;4973676;28;20186;-64
2023/10/03 09:29:29;;;;;;;26.57;10.93;;;18.40;99.90;;;;;;4973473;28;20181;-65
2023/10/03 09:32:20;;;;;;;20.73;10.43;;;18.50;99.90;;;;;;4973765;28;20620;-66
2023/10/03 09:34:56;;;;;;;18.10;7.60;;;18.40;99.90;;;;;;4973777;28;20209;-65
2023/10/03 09:37:28;;;;;;;14.07;7.43;;;18.60;99.90;;;;;;4973185;28;20209;-65
2023/10/03 09:39:58;;;;;;;18.23;5.97;;;18.90;99.90;;;;;;4981887;28;20189;-67
2023/10/03 09:42:24;;;;;;;15.10;5.33;;;19.20;99.90;;;;;;4973630;28;20618;-66
2023/10/03 09:44:51;;;;;;;15.33;5.93;;;19.40;99.90;;;;;;4973673;28;20217;-64
2023/10/03 09:47:18;;;;;;;15.40;6.23;;;19.60;99.90;;;;;;4973527;28;20196;-66
2023/10/03 09:49:46;;;;;;;13.40;5.40;;;19.70;99.90;;;;;;4980631;28;20282;-66
2023/10/03 09:52:26;;;;;;;13.40;5.43;;;19.90;99.90;;;;;;4973457;28;20190;-66
2023/10/03 09:54:59;;;;;;;17.97;5.73;;;20.10;99.90;;;;;;4981644;28;20214;-66
2023/10/03 09:57:28;;;;;;;10.97;5.53;;;20.40;99.90;;;;;;4973282;28;20211;-65
2023/10/03 09:59:55;;;;;;;18.73;6.03;;;20.50;99.90;;;;;;4964819;28;20301;-66
2023/10/03 10:02:35;;;;;;;12.60;5.87;;;20.70;99.90;;;;;;4973442;28;20182;-65
2023/10/03 10:05:23;;;;;;;15.57;6.20;;;20.70;99.90;;;;;;4965439;28;20248;-66
2023/10/03 10:08:32;;;;;;;13.63;5.73;;;20.70;99.90;;;;;;4981237;28;20189;-66
2023/10/03 10:11:10;;;;;;;15.57;5.50;;;20.80;99.90;;;;;;4965183;28;20177;-65
2023/10/03 10:13:37;;;;;;;13.10;5.40;;;21.00;99.90;;;;;;4973155;28;20284;-68
2023/10/03 10:16:11;;;;;;;15.47;4.90;;;21.20;99.90;;;;;;4971776;28;20251;-66
2023/10/03 10:18:46;;;;;;;14.10;5.47;;;21.20;99.90;;;;;;4972640;28;20653;-66
2023/10/03 10:21:36;;;;;;;12.27;5.20;;;21.20;99.90;;;;;;4980084;28;20181;-66
2023/10/03 10:24:11;;;;;;;11.57;4.87;;;21.30;99.90;;;;;;4965104;28;20213;-65
2023/10/03 10:26:38;;;;;;;11.77;5.27;;;21.30;99.90;;;;;;4972417;28;20204;-67
2023/10/03 10:29:08;;;;;;;11.20;4.87;;;21.20;99.90;;;;;;4972534;28;20239;-67
2023/10/03 10:31:37;;;;;;;12.73;5.30;;;21.10;99.90;;;;;;4972905;28;20256;-68
2023/10/03 10:34:20;;;;;;;13.03;6.00;;;21.10;99.90;;;;;;4965116;28;20213;-67
2023/10/03 10:37:02;;;;;;;15.40;5.43;;;21.10;99.90;;;;;;4972329;28;20296;-67
2023/10/03 10:43:04;;;;;;;11.73;5.37;;;21.30;99.90;;;;;;4972362;28;20305;-67
2023/10/03 10:45:37;;;;;;;15.10;5.67;;;21.60;99.90;;;;;;4972559;28;20222;-67
2023/10/03 10:48:05;;;;;;;13.30;5.40;;;21.60;99.90;;;;;;4956932;28;20174;-67
2023/10/03 10:51:10;;;;;;;11.87;5.33;;;21.70;99.90;;;;;;4972101;28;20181;-67
2023/10/03 10:53:42;;;;;;;12.03;5.17;;;21.70;99.90;;;;;;4971330;28;20205;-67
2023/10/03 10:56:09;;;;;;;18.00;5.20;;;21.60;99.90;;;;;;4964291;28;20649;-67
2023/10/03 10:59:01;;;;;;;13.63;5.40;;;21.60;99.90;;;;;;4979735;28;20593;-67
2023/10/03 11:01:27;;;;;;;8.83;4.67;;;21.50;99.90;;;;;;4967603;28;20186;-67
2023/10/03 11:03:53;;;;;;;11.67;4.87;;;21.40;99.90;;;;;;4971860;28;20716;-67
2023/10/03 11:06:19;;;;;;;12.30;5.27;;;21.30;99.90;;;;;;4972178;28;20202;-67
2023/10/03 11:08:50;;;;;;;14.67;4.63;;;21.30;99.90;;;;;;4981002;28;20199;-66
2023/10/03 11:11:16;;;;;;;11.50;4.70;;;21.30;99.90;;;;;;4978526;28;20589;-67
2023/10/03 11:13:53;;;;;;;12.77;5.30;;;21.20;99.90;;;;;;4971631;28;20292;-67
2023/10/03 11:16:23;;;;;;;10.30;4.80;;;21.10;99.90;;;;;;4980045;28;20283;-67
2023/10/03 11:18:50;;;;;;;13.40;5.00;;;21.10;99.90;;;;;;4970375;28;20186;-67
2023/10/03 11:21:16;;;;;;;8.27;4.37;;;21.10;99.90;;;;;;4971596;28;20213;-67
2023/10/03 11:24:08;;;;;;;11.87;5.03;;;21.00;99.90;;;;;;4979893;28;20193;-67
2023/10/03 11:27:01;;;;;;;12.10;4.93;;;21.00;99.90;;;;;;4971932;28;20196;-67
2023/10/03 11:29:41;;;;;;;11.90;5.07;;;21.20;99.90;;;;;;4970040;28;20661;-67
2023/10/03 11:32:18;;;;;;;11.67;5.23;;;21.30;99.90;;;;;;4964301;28;20192;-67
2023/10/03 11:34:44;;;;;;;15.50;4.67;;;21.50;99.90;;;;;;4970401;28;20221;-67
2023/10/03 11:37:26;;;;;;;14.00;5.10;;;21.60;99.90;;;;;;4964492;28;20206;-67
2023/10/03 11:39:51;;;;;;;11.50;5.23;;;21.70;99.90;;;;;;4970899;28;20245;-67
2023/10/03 11:42:26;;;;;;;11.27;4.43;;;21.80;99.90;;;;;;4971366;28;20308;-67
2023/10/03 11:45:01;;;;;;;7.63;4.17;;;21.70;99.90;;;;;;4971405;28;20228;-67
2023/10/03 11:47:27;;;;;;;9.23;4.33;;;21.60;99.90;;;;;;4971439;28;20193;-68
2023/10/03 11:49:53;;;;;;;12.80;5.27;;;21.40;99.90;;;;;;4962909;28;20240;-67
2023/10/03 11:52:20;;;;;;;12.70;4.90;;;21.20;99.90;;;;;;4971499;28;20186;-67
2023/10/03 11:54:45;;;;;;;11.80;5.53;;;21.00;99.90;;;;;;4980079;28;20209;-67
2023/10/03 11:57:12;;;;;;;13.77;5.67;;;20.80;99.90;;;;;;4971635;28;20201;-67
2023/10/03 11:59:40;;;;;;;10.43;4.53;;;20.60;99.90;;;;;;4970612;28;20534;-66
2023/10/03 12:02:06;;;;;;;11.60;4.67;;;20.40;99.90;;;;;;4970956;28;20592;-65
2023/10/03 12:04:34;;;;;;;17.60;5.00;;;20.30;99.90;;;;;;4978402;28;20283;-64
2023/10/03 12:07:03;;;;;;;11.20;4.50;;;20.00;99.90;;;;;;4970987;28;20276;-64
2023/10/03 12:09:30;;;;;;;12.17;4.37;;;19.80;99.90;;;;;;4970064;28;20280;-64
2023/10/03 12:11:56;;;;;;;11.83;4.70;;;19.60;99.90;;;;;;4970701;28;20272;-64
2023/10/03 12:14:22;;;;;;;11.33;4.87;;;19.50;99.90;;;;;;4976988;28;20312;-64
2023/10/03 12:16:51;;;;;;;8.93;4.30;;;19.40;99.90;;;;;;4972386;28;20213;-65
2023/10/03 12:19:21;;;;;;;11.20;4.90;;;19.30;99.90;;;;;;4975222;28;20188;-65
2023/10/03 12:21:47;;;;;;;8.67;4.30;;;19.20;99.90;;;;;;4972927;28;20186;-65
2023/10/03 12:24:13;;;;;;;8.90;4.57;;;19.00;99.90;;;;;;4979050;28;20197;-65
2023/10/03 12:26:38;;;;;;;9.07;4.13;;;18.80;99.90;;;;;;4970621;28;20325;-64
2023/10/03 12:29:04;;;;;;;9.77;4.77;;;18.70;99.90;;;;;;4977703;28;20268;-64
2023/10/03 12:31:32;;;;;;;10.57;4.97;;;18.60;99.90;;;;;;4970847;28;20228;-63
2023/10/03 12:33:58;;;;;;;8.97;3.73;;;18.50;99.90;;;;;;4968046;28;20279;-63
2023/10/03 12:36:26;;;;;;;8.90;3.97;;;18.30;99.90;;;;;;4965503;28;20311;-63
2023/10/03 12:38:52;;;;;;;8.43;3.67;;;18.20;99.90;;;;;;4969310;28;20193;-63
2023/10/03 12:41:19;;;;;;;11.10;4.57;;;18.20;99.90;;;;;;4970113;28;20189;-63
2023/10/03 12:43:48;;;;;;;7.67;3.07;;;18.10;99.90;;;;;;4970365;28;20666;-62
2023/10/03 12:46:14;;;;;;;7.83;3.07;;;18.00;99.90;;;;;;4966457;28;20187;-64
2023/10/03 12:48:40;;;;;;;5.13;2.53;;;17.80;99.90;;;;;;4966962;28;20284;-63
2023/10/03 12:51:06;;;;;;;8.13;2.87;;;17.70;99.90;;;;;;4970246;28;20182;-63
2023/10/03 12:53:36;;;;;;;9.13;3.27;;;17.60;99.90;;;;;;4970539;28;20211;-63
2023/10/03 12:56:03;;;;;;;4.90;2.23;;;17.60;99.90;;;;;;4970622;28;20224;-64